Time;durP1;ratioP1;P1;durP2;ratioP2;P2;SDS_P1;SDS_P2;PMS_P1;PMS_P2;Temp;Humidity;BMP_temperature;BMP_pressure;BME280_temperature;BME280_humidity;BME280_pressure;Samples;Min_cycle;Max_cycle;Signal;HPM_P1;HPM_P2
2021/07/11 00:04:27;;;;;;;0.70;0.65;;;24.40;99.90;;;;;;20835476;22;20230;-67
2021/07/11 00:14:32;;;;;;;0.95;0.55;;;24.50;99.90;;;;;;20826138;28;20221;-67
2021/07/11 00:24:39;;;;;;;3.47;0.83;;;24.10;99.90;;;;;;20824675;28;20281;-67
2021/07/11 00:34:44;;;;;;;0.87;0.83;;;23.50;99.90;;;;;;20823190;28;20668;-68
2021/07/11 00:44:47;;;;;;;3.53;1.00;;;23.60;99.90;;;;;;20822758;28;20298;-67
2021/07/11 00:54:52;;;;;;;0.83;0.73;;;23.80;99.90;;;;;;20821261;28;20236;-68
2021/07/11 01:05:00;;;;;;;0.20;0.20;;;23.30;99.90;;;;;;20822784;28;20249;-68
2021/07/11 01:15:06;;;;;;;0.95;0.70;;;23.10;99.90;;;;;;20821348;28;20719;-68
2021/07/11 01:25:18;;;;;;;11.50;1.83;;;23.90;99.90;;;;;;20821165;28;20194;-68
2021/07/11 01:35:24;;;;;;;0.60;0.20;;;24.00;99.90;;;;;;20819825;28;20606;-67
2021/07/11 01:45:28;;;;;;;0.77;0.60;;;24.00;99.90;;;;;;20819449;28;20732;-67
2021/07/11 01:55:34;;;;;;;2.25;0.50;;;24.10;99.90;;;;;;20818709;28;20226;-68
2021/07/11 02:05:38;;;;;;;1.73;0.68;;;24.10;99.90;;;;;;20818846;28;20594;-67
2021/07/11 02:15:47;;;;;;;3.20;1.02;;;24.00;99.90;;;;;;20818845;28;20320;-67
2021/07/11 02:25:51;;;;;;;3.67;0.90;;;23.90;99.90;;;;;;20829970;28;20229;-68
2021/07/11 02:35:57;;;;;;;0.50;0.47;;;23.80;99.90;;;;;;20817558;28;20236;-67
2021/07/11 02:46:02;;;;;;;1.60;0.77;;;23.80;99.90;;;;;;20817017;28;20288;-68
2021/07/11 02:56:08;;;;;;;5.60;0.30;;;23.70;99.90;;;;;;20816515;28;20683;-68
2021/07/11 03:06:12;;;;;;;0.33;0.33;;;23.70;99.90;;;;;;20839962;22;20698;-67
2021/07/11 03:16:20;;;;;;;0.57;0.57;;;23.60;99.90;;;;;;20830828;28;20561;-67
2021/07/11 03:26:25;;;;;;;0.47;0.47;;;23.60;99.90;;;;;;20829325;28;20277;-67
2021/07/11 03:36:33;;;;;;;0.43;0.43;;;23.50;99.90;;;;;;20829235;28;20194;-67
2021/07/11 03:46:40;;;;;;;1.03;0.63;;;23.40;99.90;;;;;;20827396;28;20581;-67
2021/07/11 03:56:46;;;;;;;3.07;1.60;;;23.30;99.90;;;;;;20826610;28;20293;-66
2021/07/11 04:06:53;;;;;;;1.17;0.50;;;23.40;99.90;;;;;;20839262;23;20325;-68
2021/07/11 04:17:02;;;;;;;3.27;1.67;;;23.20;99.90;;;;;;20825383;28;20202;-67
2021/07/11 04:27:06;;;;;;;1.90;0.70;;;23.10;99.90;;;;;;20824519;28;20226;-67
2021/07/11 04:37:12;;;;;;;0.50;0.50;;;23.10;99.90;;;;;;20824019;28;20204;-67
2021/07/11 04:47:16;;;;;;;0.20;0.00;;;23.00;99.90;;;;;;20823681;28;20308;-66
2021/07/11 04:57:22;;;;;;;0.20;0.10;;;22.80;99.90;;;;;;20822550;28;20195;-67
2021/07/11 05:07:26;;;;;;;0.47;0.47;;;22.70;99.90;;;;;;20821576;28;20234;-67
2021/07/11 05:17:31;;;;;;;0.30;0.20;;;22.80;99.90;;;;;;20819523;28;20193;-67
2021/07/11 05:27:34;;;;;;;1.77;0.50;;;22.90;99.90;;;;;;20817995;28;20260;-67
2021/07/11 05:37:40;;;;;;;0.80;0.43;;;23.10;99.90;;;;;;20819040;28;20559;-67
2021/07/11 05:47:44;;;;;;;0.25;0.17;;;23.40;99.90;;;;;;20818441;28;20218;-67
2021/07/11 05:57:49;;;;;;;1.38;0.57;;;23.80;99.90;;;;;;20817492;28;20655;-67
2021/07/11 06:07:52;;;;;;;0.70;0.70;;;24.20;99.90;;;;;;20817205;28;20252;-68
2021/07/11 06:17:58;;;;;;;0.93;0.35;;;24.50;99.90;;;;;;20817265;28;20584;-68
2021/07/11 06:28:02;;;;;;;1.95;1.75;;;24.90;99.90;;;;;;20815919;28;20229;-67
2021/07/11 06:38:07;;;;;;;0.30;0.30;;;25.00;99.90;;;;;;20824032;28;20202;-68
2021/07/11 06:48:11;;;;;;;0.85;0.28;;;25.70;99.90;;;;;;20831623;28;20596;-69
2021/07/11 06:58:15;;;;;;;8.20;0.55;;;25.90;99.90;;;;;;20831249;28;20208;-66
2021/07/11 07:08:19;;;;;;;0.63;0.57;;;25.90;99.90;;;;;;20830031;28;20710;-67
2021/07/11 07:18:25;;;;;;;0.40;0.40;;;25.90;99.90;;;;;;20829240;28;20194;-68
2021/07/11 07:28:29;;;;;;;0.60;0.57;;;26.00;99.90;;;;;;20826279;28;20314;-68
2021/07/11 07:38:34;;;;;;;1.30;0.25;;;26.00;99.90;;;;;;20832331;28;20286;-68
2021/07/11 07:48:38;;;;;;;0.60;0.60;;;26.00;99.90;;;;;;20829184;28;20640;-68
2021/07/11 07:58:43;;;;;;;0.30;0.22;;;26.00;99.90;;;;;;20825011;28;20597;-67
2021/07/11 08:08:46;;;;;;;0.20;0.20;;;26.20;99.90;;;;;;20823383;28;20278;-66
2021/07/11 08:18:51;;;;;;;0.60;0.50;;;26.40;99.90;;;;;;20823088;28;20209;-68
2021/07/11 08:28:55;;;;;;;0.20;0.20;;;26.70;99.90;;;;;;20821244;28;20242;-68
2021/07/11 08:39:00;;;;;;;1.00;0.63;;;26.70;99.90;;;;;;20820625;28;20210;-68
2021/07/11 08:49:03;;;;;;;0.20;0.20;;;26.70;99.90;;;;;;20821570;28;20229;-69
2021/07/11 08:59:08;;;;;;;0.25;0.15;;;26.80;99.90;;;;;;20819387;28;20226;-69
2021/07/11 09:09:13;;;;;;;0.40;0.30;;;26.80;99.90;;;;;;20818272;28;20225;-68
2021/07/11 09:19:23;;;;;;;0.98;0.88;;;26.90;99.90;;;;;;20817907;28;20301;-68
2021/07/11 09:29:31;;;;;;;2.38;0.93;;;27.00;99.90;;;;;;20817564;28;20321;-68
2021/07/11 09:39:37;;;;;;;0.70;0.68;;;27.40;99.90;;;;;;20816966;28;20580;-68
2021/07/11 09:49:41;;;;;;;10.82;0.60;;;27.70;99.90;;;;;;20815090;28;20229;-66
2021/07/11 09:59:46;;;;;;;3.13;1.30;;;27.40;99.90;;;;;;20814353;28;20244;-68
2021/07/11 10:09:50;;;;;;;4.40;1.23;;;27.70;99.90;;;;;;20823794;28;20253;-68
2021/07/11 10:19:56;;;;;;;0.65;0.65;;;27.90;99.90;;;;;;20841172;28;20212;-67
2021/07/11 10:29:59;;;;;;;0.70;0.70;;;28.10;99.90;;;;;;20840308;28;20229;-67
2021/07/11 10:40:09;;;;;;;0.65;0.60;;;28.40;99.90;;;;;;20842864;28;20198;-67
2021/07/11 10:50:25;;;;;;;3.95;1.30;;;28.40;99.90;;;;;;20840155;28;20290;-68
2021/07/11 11:00:31;;;;;;;1.05;0.57;;;28.50;99.90;;;;;;20840240;28;20230;-68
2021/07/11 11:10:36;;;;;;;2.08;1.50;;;28.50;99.90;;;;;;20838945;28;20291;-67
2021/07/11 11:20:41;;;;;;;1.55;0.98;;;29.00;99.90;;;;;;20834787;28;20284;-69
2021/07/11 11:30:45;;;;;;;2.65;1.85;;;29.00;99.90;;;;;;20822970;28;20225;-68
2021/07/11 11:40:50;;;;;;;2.03;0.88;;;28.90;99.90;;;;;;20818771;28;20190;-68
2021/07/11 11:51:01;;;;;;;1.08;0.93;;;29.80;99.90;;;;;;20824039;28;20280;-69
2021/07/11 12:01:11;;;;;;;12.18;2.70;;;30.40;99.90;;;;;;20823055;28;20245;-67
2021/07/11 12:11:15;;;;;;;2.47;1.65;;;30.60;99.90;;;;;;20828269;28;20329;-69
2021/07/11 12:21:22;;;;;;;1.42;1.30;;;31.50;99.90;;;;;;20823817;28;20198;-69
2021/07/11 12:31:29;;;;;;;0.95;0.85;;;30.90;99.90;;;;;;20800628;28;20222;-67
2021/07/11 12:41:36;;;;;;;1.02;0.93;;;32.00;99.90;;;;;;20745640;28;20278;-68
2021/07/11 12:51:42;;;;;;;2.55;1.00;;;31.80;99.90;;;;;;20731879;28;20227;-68
2021/07/11 13:01:48;;;;;;;3.30;1.48;;;32.20;99.90;;;;;;20733081;28;20229;-68
2021/07/11 13:11:51;;;;;;;2.45;1.00;;;33.00;99.90;;;;;;20735102;28;20631;-68
2021/07/11 13:21:56;;;;;;;1.65;1.23;;;33.30;99.90;;;;;;20734190;28;20199;-67
2021/07/11 13:32:00;;;;;;;3.13;1.40;;;33.70;99.90;;;;;;20750895;28;20699;-68
2021/07/11 13:42:06;;;;;;;1.40;0.80;;;33.30;99.90;;;;;;20813431;28;20202;-68
2021/07/11 13:52:09;;;;;;;3.42;1.55;;;33.60;99.90;;;;;;20813074;28;20291;-68
2021/07/11 14:02:14;;;;;;;1.05;0.82;;;34.10;99.90;;;;;;20811942;28;20284;-68
2021/07/11 14:12:18;;;;;;;1.67;1.05;;;33.80;99.90;;;;;;20814884;28;20317;-69
2021/07/11 14:22:23;;;;;;;0.70;0.70;;;33.60;99.90;;;;;;20813275;28;20198;-67
2021/07/11 14:32:26;;;;;;;1.65;1.38;;;33.10;99.90;;;;;;20811043;28;20217;-69
2021/07/11 14:42:31;;;;;;;2.83;1.38;;;31.70;99.90;;;;;;20808543;28;20198;-68
2021/07/11 14:52:36;;;;;;;2.30;1.23;;;30.40;99.90;;;;;;20811207;28;20221;-69
2021/07/11 15:02:40;;;;;;;1.67;1.30;;;30.50;99.90;;;;;;20823301;28;20230;-69
2021/07/11 15:12:44;;;;;;;1.50;1.00;;;33.00;99.90;;;;;;20824365;28;20236;-68
2021/07/11 15:22:49;;;;;;;1.45;1.20;;;33.50;99.90;;;;;;20820974;28;20605;-70
2021/07/11 15:32:52;;;;;;;0.88;0.85;;;33.20;99.90;;;;;;20773726;28;20233;-69
2021/07/11 15:42:57;;;;;;;2.50;1.15;;;32.50;99.90;;;;;;20789514;28;20277;-69
2021/07/11 15:53:01;;;;;;;1.60;1.45;;;31.60;99.90;;;;;;20755676;28;20714;-68
2021/07/11 16:03:06;;;;;;;3.15;1.17;;;31.00;99.90;;;;;;20743570;28;20223;-68
2021/07/11 16:13:10;;;;;;;2.15;1.55;;;29.70;99.90;;;;;;20735914;28;20237;-67
2021/07/11 16:23:15;;;;;;;4.38;1.25;;;29.70;99.90;;;;;;20738367;28;20230;-68
2021/07/11 16:33:20;;;;;;;2.15;1.23;;;30.30;99.90;;;;;;20821755;28;20217;-68
2021/07/11 16:43:45;;;;;;;1.52;0.80;;;29.70;99.90;;;;;;20768623;28;20596;-67
2021/07/11 16:53:51;;;;;;;1.10;0.68;;;28.60;99.90;;;;;;20753205;28;20246;-68
2021/07/11 17:03:56;;;;;;;1.65;0.95;;;28.10;99.90;;;;;;20771790;28;20236;-69
2021/07/11 17:13:59;;;;;;;1.20;1.10;;;28.10;99.90;;;;;;20801158;28;20322;-68
2021/07/11 17:24:05;;;;;;;0.85;0.77;;;28.60;99.90;;;;;;20806707;28;20208;-68
2021/07/11 17:34:09;;;;;;;4.40;1.08;;;27.70;99.90;;;;;;20813222;28;20244;-67
2021/07/11 17:44:14;;;;;;;0.73;0.70;;;28.70;99.90;;;;;;20814892;28;20248;-67
2021/07/11 17:54:19;;;;;;;1.92;1.73;;;29.60;99.90;;;;;;20811712;28;20248;-67
2021/07/11 18:04:24;;;;;;;5.05;1.17;;;29.30;99.90;;;;;;20788117;28;20240;-68
2021/07/11 18:14:27;;;;;;;1.08;0.98;;;28.70;99.90;;;;;;20774082;28;20226;-68
2021/07/11 18:24:32;;;;;;;1.33;0.75;;;27.70;99.90;;;;;;20787885;28;20241;-67
2021/07/11 18:34:36;;;;;;;2.75;1.00;;;27.00;99.90;;;;;;20792718;28;20565;-68
2021/07/11 18:44:41;;;;;;;1.80;0.93;;;26.70;99.90;;;;;;20798948;28;20206;-70
2021/07/11 18:54:45;;;;;;;3.88;1.40;;;26.30;99.90;;;;;;20743264;28;20224;-69
2021/07/11 19:04:49;;;;;;;1.38;0.90;;;26.40;99.90;;;;;;20744246;28;20258;-69
2021/07/11 19:14:53;;;;;;;1.13;0.82;;;26.00;99.90;;;;;;20742882;28;20638;-70
2021/07/11 19:24:58;;;;;;;1.45;1.30;;;26.00;99.90;;;;;;20807052;28;20837;-68
2021/07/11 19:35:01;;;;;;;3.30;1.35;;;25.60;99.90;;;;;;20782449;28;20219;-68
2021/07/11 19:45:08;;;;;;;1.02;0.70;;;25.60;99.90;;;;;;20775408;28;20218;-67
2021/07/11 19:55:13;;;;;;;3.28;1.92;;;25.40;99.90;;;;;;20775930;28;20309;-68
2021/07/11 20:05:18;;;;;;;0.90;0.85;;;25.50;99.90;;;;;;20818185;28;20308;-68
2021/07/11 20:15:22;;;;;;;1.63;1.52;;;25.30;99.90;;;;;;20821159;28;20557;-68
2021/07/11 20:25:27;;;;;;;1.35;1.10;;;25.30;99.90;;;;;;20796676;28;20291;-67
2021/07/11 20:35:31;;;;;;;1.20;1.00;;;25.00;99.90;;;;;;20783862;28;20217;-69
2021/07/11 20:45:35;;;;;;;1.02;0.57;;;24.70;99.90;;;;;;20819952;28;20625;-68
2021/07/11 20:55:40;;;;;;;0.50;0.32;;;24.70;99.90;;;;;;20759601;28;20214;-68
2021/07/11 21:05:47;;;;;;;0.68;0.68;;;24.20;99.90;;;;;;20773531;28;20222;-68
2021/07/11 21:15:51;;;;;;;16.95;1.60;;;24.40;99.90;;;;;;20828872;28;20571;-69
2021/07/11 21:25:56;;;;;;;1.15;0.52;;;24.20;99.90;;;;;;20804306;28;20194;-68
2021/07/11 21:35:59;;;;;;;1.17;0.80;;;24.60;99.90;;;;;;20762801;28;20218;-68
2021/07/11 21:46:05;;;;;;;1.27;1.15;;;25.10;99.90;;;;;;20771529;28;20195;-68
2021/07/11 21:56:08;;;;;;;1.52;1.42;;;25.40;99.90;;;;;;20771738;28;20215;-68
2021/07/11 22:06:14;;;;;;;1.20;1.10;;;25.50;99.90;;;;;;20793456;28;20222;-68
2021/07/11 22:16:17;;;;;;;2.10;0.85;;;25.40;99.90;;;;;;20814139;28;20233;-68
2021/07/11 22:26:22;;;;;;;1.02;0.80;;;25.40;99.90;;;;;;20814527;28;20577;-68
2021/07/11 22:36:26;;;;;;;2.25;0.98;;;25.60;99.90;;;;;;20813186;28;20233;-68
2021/07/11 22:46:32;;;;;;;1.92;1.55;;;25.40;99.90;;;;;;20812442;28;20206;-68
2021/07/11 22:56:39;;;;;;;1.40;1.10;;;25.30;99.90;;;;;;20812506;28;20230;-69
2021/07/11 23:06:44;;;;;;;2.58;0.95;;;25.20;99.90;;;;;;20812878;28;20229;-68
2021/07/11 23:16:47;;;;;;;1.42;1.10;;;25.00;99.90;;;;;;20817239;28;20809;-69
2021/07/11 23:26:52;;;;;;;2.17;1.75;;;24.90;99.90;;;;;;20829344;28;20540;-69
2021/07/11 23:36:56;;;;;;;1.65;1.17;;;24.60;99.90;;;;;;20829457;28;20236;-70
2021/07/11 23:47:01;;;;;;;1.42;0.68;;;24.40;99.90;;;;;;20841981;28;20230;-69
2021/07/11 23:57:05;;;;;;;4.22;1.35;;;24.60;99.90;;;;;;20827457;28;20226;-69
